sensor_id;sensor_type;location;lat;lon;timestamp;pressure;altitude;pressure_sealevel;temperature;humidity
77281;BME280;66339;47.262;17.144;2023-07-31T00:00:27;100075.47;;;23.93;61.14
77281;BME280;66339;47.262;17.144;2023-07-31T00:02:57;100079.25;;;23.92;61.14
77281;BME280;66339;47.262;17.144;2023-07-31T00:05:30;100080.87;;;23.93;61.05
77281;BME280;66339;47.262;17.144;2023-07-31T00:07:56;100083.06;;;23.91;61.00
77281;BME280;66339;47.262;17.144;2023-07-31T00:10:29;100092.28;;;23.90;60.97
77281;BME280;66339;47.262;17.144;2023-07-31T00:12:59;100091.97;;;23.92;60.92
77281;BME280;66339;47.262;17.144;2023-07-31T00:15:28;100085.78;;;23.91;60.86
77281;BME280;66339;47.262;17.144;2023-07-31T00:17:55;100080.69;;;23.90;60.79
77281;BME280;66339;47.262;17.144;2023-07-31T00:20:21;100079.88;;;23.89;60.75
77281;BME280;66339;47.262;17.144;2023-07-31T00:22:48;100079.88;;;23.89;60.71
77281;BME280;66339;47.262;17.144;2023-07-31T00:25:15;100091.00;;;23.88;60.63
77281;BME280;66339;47.262;17.144;2023-07-31T00:27:41;100082.91;;;23.88;60.57
77281;BME280;66339;47.262;17.144;2023-07-31T00:30:08;100086.38;;;23.88;60.60
77281;BME280;66339;47.262;17.144;2023-07-31T00:32:35;100085.28;;;23.89;60.49
77281;BME280;66339;47.262;17.144;2023-07-31T00:35:03;100082.91;;;23.88;60.56
77281;BME280;66339;47.262;17.144;2023-07-31T00:37:29;100089.09;;;23.88;60.37
77281;BME280;66339;47.262;17.144;2023-07-31T00:39:59;100091.78;;;23.88;60.30
77281;BME280;66339;47.262;17.144;2023-07-31T00:42:26;100084.81;;;23.87;60.32
77281;BME280;66339;47.262;17.144;2023-07-31T00:44:52;100084.47;;;23.89;60.12
77281;BME280;66339;47.262;17.144;2023-07-31T00:47:21;100093.69;;;23.88;60.12
77281;BME280;66339;47.262;17.144;2023-07-31T00:49:48;100085.91;;;23.86;60.10
77281;BME280;66339;47.262;17.144;2023-07-31T00:52:21;100087.50;;;23.87;60.07
77281;BME280;66339;47.262;17.144;2023-07-31T00:54:48;100101.81;;;23.88;60.07
77281;BME280;66339;47.262;17.144;2023-07-31T00:57:18;100106.72;;;23.86;60.05
77281;BME280;66339;47.262;17.144;2023-07-31T00:59:45;100105.13;;;23.85;60.05
77281;BME280;66339;47.262;17.144;2023-07-31T01:02:12;100097.81;;;23.85;59.98
77281;BME280;66339;47.262;17.144;2023-07-31T01:04:42;100098.94;;;23.84;59.95
77281;BME280;66339;47.262;17.144;2023-07-31T01:09:47;100095.09;;;23.85;59.86
77281;BME280;66339;47.262;17.144;2023-07-31T01:12:16;100101.63;;;23.84;59.92
77281;BME280;66339;47.262;17.144;2023-07-31T01:17:39;100106.56;;;23.82;59.81
77281;BME280;66339;47.262;17.144;2023-07-31T01:20:30;100103.84;;;23.82;59.80
77281;BME280;66339;47.262;17.144;2023-07-31T01:28:17;100114.16;;;23.80;59.80
77281;BME280;66339;47.262;17.144;2023-07-31T01:30:47;100117.97;;;23.79;59.81
77281;BME280;66339;47.262;17.144;2023-07-31T01:33:17;100121.47;;;23.80;59.83
77281;BME280;66339;47.262;17.144;2023-07-31T01:35:44;100124.16;;;23.80;59.82
77281;BME280;66339;47.262;17.144;2023-07-31T01:38:11;100117.97;;;23.79;59.82
77281;BME280;66339;47.262;17.144;2023-07-31T01:40:40;100117.97;;;23.79;59.76
77281;BME280;66339;47.262;17.144;2023-07-31T01:43:07;100108.75;;;23.80;59.80
77281;BME280;66339;47.262;17.144;2023-07-31T01:45:34;100103.34;;;23.80;59.80
77281;BME280;66339;47.262;17.144;2023-07-31T01:48:04;100097.47;;;23.78;59.82
77281;BME280;66339;47.262;17.144;2023-07-31T01:50:34;100100.19;;;23.78;59.83
77281;BME280;66339;47.262;17.144;2023-07-31T01:53:01;100095.88;;;23.77;59.81
77281;BME280;66339;47.262;17.144;2023-07-31T01:55:27;100103.97;;;23.77;59.81
77281;BME280;66339;47.262;17.144;2023-07-31T01:57:54;100103.16;;;23.76;59.74
77281;BME280;66339;47.262;17.144;2023-07-31T02:00:20;100100.78;;;23.75;59.75
77281;BME280;66339;47.262;17.144;2023-07-31T02:02:47;100105.88;;;23.76;59.68
77281;BME280;66339;47.262;17.144;2023-07-31T02:05:14;100099.22;;;23.74;59.72
77281;BME280;66339;47.262;17.144;2023-07-31T02:07:40;100110.81;;;23.74;59.69
77281;BME280;66339;47.262;17.144;2023-07-31T02:10:10;100117.00;;;23.75;59.68
77281;BME280;66339;47.262;17.144;2023-07-31T02:12:36;100120.81;;;23.74;59.65
77281;BME280;66339;47.262;17.144;2023-07-31T02:15:03;100123.50;;;23.74;59.53
77281;BME280;66339;47.262;17.144;2023-07-31T02:17:30;100126.22;;;23.74;59.50
77281;BME280;66339;47.262;17.144;2023-07-31T02:20:00;100122.41;;;23.75;59.59
77281;BME280;66339;47.262;17.144;2023-07-31T02:22:27;100125.09;;;23.75;59.58
77281;BME280;66339;47.262;17.144;2023-07-31T02:24:56;100128.91;;;23.74;59.67
77281;BME280;66339;47.262;17.144;2023-07-31T02:27:23;100130.78;;;23.73;59.65
77281;BME280;66339;47.262;17.144;2023-07-31T02:29:49;100131.63;;;23.74;59.60
77281;BME280;66339;47.262;17.144;2023-07-31T02:32:16;100130.78;;;23.73;59.55
77281;BME280;66339;47.262;17.144;2023-07-31T02:34:46;100130.00;;;23.73;59.56
77281;BME280;66339;47.262;17.144;2023-07-31T02:37:15;100140.78;;;23.73;59.61
77281;BME280;66339;47.262;17.144;2023-07-31T02:39:41;100134.59;;;23.72;59.58
77281;BME280;66339;47.262;17.144;2023-07-31T02:42:08;100132.69;;;23.73;59.51
77281;BME280;66339;47.262;17.144;2023-07-31T02:44:35;100139.22;;;23.72;59.51
77281;BME280;66339;47.262;17.144;2023-07-31T02:47:02;100139.72;;;23.74;59.37
77281;BME280;66339;47.262;17.144;2023-07-31T02:49:31;100135.41;;;23.73;59.36
77281;BME280;66339;47.262;17.144;2023-07-31T02:51:57;100129.19;;;23.72;59.36
77281;BME280;66339;47.262;17.144;2023-07-31T02:54:24;100139.22;;;23.72;59.19
77281;BME280;66339;47.262;17.144;2023-07-31T02:56:51;100143.03;;;23.71;59.30
77281;BME280;66339;47.262;17.144;2023-07-31T02:59:17;100151.91;;;23.71;59.23
77281;BME280;66339;47.262;17.144;2023-07-31T03:01:44;100139.53;;;23.70;59.20
77281;BME280;66339;47.262;17.144;2023-07-31T03:04:10;100152.25;;;23.70;59.22
77281;BME280;66339;47.262;17.144;2023-07-31T03:06:37;100152.25;;;23.70;59.21
77281;BME280;66339;47.262;17.144;2023-07-31T03:09:04;100151.41;;;23.69;59.14
77281;BME280;66339;47.262;17.144;2023-07-31T03:11:31;100150.62;;;23.69;59.11
77281;BME280;66339;47.262;17.144;2023-07-31T03:13:57;100157.12;;;23.68;59.12
77281;BME280;66339;47.262;17.144;2023-07-31T03:16:27;100152.53;;;23.68;59.05
77281;BME280;66339;47.262;17.144;2023-07-31T03:18:56;100155.22;;;23.68;59.06
77281;BME280;66339;47.262;17.144;2023-07-31T03:21:23;100163.66;;;23.67;59.06
77281;BME280;66339;47.262;17.144;2023-07-31T03:23:53;100159.34;;;23.66;58.95
77281;BME280;66339;47.262;17.144;2023-07-31T03:26:22;100165.56;;;23.66;59.02
77281;BME280;66339;47.262;17.144;2023-07-31T03:28:50;100172.84;;;23.66;58.98
77281;BME280;66339;47.262;17.144;2023-07-31T03:31:16;100166.34;;;23.67;58.96
77281;BME280;66339;47.262;17.144;2023-07-31T03:33:43;100165.81;;;23.65;59.02
77281;BME280;66339;47.262;17.144;2023-07-31T03:36:09;100166.59;;;23.65;58.96
77281;BME280;66339;47.262;17.144;2023-07-31T03:38:36;100172.84;;;23.66;58.96
77281;BME280;66339;47.262;17.144;2023-07-31T03:41:03;100175.56;;;23.66;58.95
77281;BME280;66339;47.262;17.144;2023-07-31T03:43:29;100172.84;;;23.66;58.88
77281;BME280;66339;47.262;17.144;2023-07-31T03:45:56;100180.44;;;23.64;58.89
77281;BME280;66339;47.262;17.144;2023-07-31T03:48:23;100175.03;;;23.64;58.87
77281;BME280;66339;47.262;17.144;2023-07-31T03:50:49;100173.44;;;23.63;58.90
77281;BME280;66339;47.262;17.144;2023-07-31T03:53:16;100179.13;;;23.61;58.86
77281;BME280;66339;47.262;17.144;2023-07-31T03:55:43;100177.22;;;23.62;58.82
77281;BME280;66339;47.262;17.144;2023-07-31T03:58:09;100177.22;;;23.62;58.83
77281;BME280;66339;47.262;17.144;2023-07-31T04:00:36;100179.91;;;23.62;58.85
77281;BME280;66339;47.262;17.144;2023-07-31T04:03:02;100175.63;;;23.61;58.88
77281;BME280;66339;47.262;17.144;2023-07-31T04:05:30;100179.44;;;23.60;58.89
77281;BME280;66339;47.262;17.144;2023-07-31T04:07:56;100181.03;;;23.61;58.82
77281;BME280;66339;47.262;17.144;2023-07-31T04:10:23;100181.03;;;23.61;58.86
77281;BME280;66339;47.262;17.144;2023-07-31T04:12:49;100191.03;;;23.60;58.83
77281;BME280;66339;47.262;17.144;2023-07-31T04:15:16;100197.22;;;23.61;58.87
77281;BME280;66339;47.262;17.144;2023-07-31T04:17:43;100188.66;;;23.59;58.89
77281;BME280;66339;47.262;17.144;2023-07-31T04:20:09;100195.66;;;23.60;58.87
77281;BME280;66339;47.262;17.144;2023-07-31T04:22:36;100190.25;;;23.60;58.84
77281;BME280;66339;47.262;17.144;2023-07-31T04:25:03;100194.06;;;23.59;58.87
77281;BME280;66339;47.262;17.144;2023-07-31T04:27:30;100188.66;;;23.59;58.85
77281;BME280;66339;47.262;17.144;2023-07-31T04:29:57;100188.66;;;23.59;58.85
77281;BME280;66339;47.262;17.144;2023-07-31T04:32:26;100191.34;;;23.59;58.84
77281;BME280;66339;47.262;17.144;2023-07-31T04:34:53;100199.47;;;23.59;58.86
77281;BME280;66339;47.262;17.144;2023-07-31T04:37:19;100190.25;;;23.60;58.74
77281;BME280;66339;47.262;17.144;2023-07-31T04:39:46;100189.44;;;23.59;58.83
77281;BME280;66339;47.262;17.144;2023-07-31T04:42:12;100189.44;;;23.59;58.80
77281;BME280;66339;47.262;17.144;2023-07-31T04:44:39;100184.06;;;23.59;58.84
77281;BME280;66339;47.262;17.144;2023-07-31T04:47:06;100188.66;;;23.59;58.81
77281;BME280;66339;47.262;17.144;2023-07-31T04:49:36;100181.62;;;23.58;58.87
77281;BME280;66339;47.262;17.144;2023-07-31T04:52:06;100177.34;;;23.57;58.86
77281;BME280;66339;47.262;17.144;2023-07-31T04:54:32;100181.62;;;23.58;58.77
77281;BME280;66339;47.262;17.144;2023-07-31T04:56:59;100177.84;;;23.59;58.77
77281;BME280;66339;47.262;17.144;2023-07-31T04:59:29;100181.62;;;23.58;58.80
77281;BME280;66339;47.262;17.144;2023-07-31T05:01:59;100183.53;;;23.57;58.79
77281;BME280;66339;47.262;17.144;2023-07-31T05:04:26;100185.94;;;23.59;58.86
77281;BME280;66339;47.262;17.144;2023-07-31T05:06:53;100180.06;;;23.57;58.96
77281;BME280;66339;47.262;17.144;2023-07-31T05:09:20;100175.44;;;23.57;58.93
77281;BME280;66339;47.262;17.144;2023-07-31T05:11:46;100175.16;;;23.59;58.89
77281;BME280;66339;47.262;17.144;2023-07-31T05:14:13;100175.44;;;23.57;58.91
77281;BME280;66339;47.262;17.144;2023-07-31T05:16:42;100173.84;;;23.56;59.08
77281;BME280;66339;47.262;17.144;2023-07-31T05:19:09;100179.25;;;23.56;59.12
77281;BME280;66339;47.262;17.144;2023-07-31T05:21:36;100178.16;;;23.57;59.25
77281;BME280;66339;47.262;17.144;2023-07-31T05:24:03;100183.25;;;23.59;59.14
77281;BME280;66339;47.262;17.144;2023-07-31T05:26:29;100179.44;;;23.60;59.09
77281;BME280;66339;47.262;17.144;2023-07-31T05:28:56;100184.84;;;23.60;59.17
77281;BME280;66339;47.262;17.144;2023-07-31T05:31:23;100186.44;;;23.61;59.08
77281;BME280;66339;47.262;17.144;2023-07-31T05:33:49;100193.41;;;23.62;59.35
77281;BME280;66339;47.262;17.144;2023-07-31T05:36:16;100189.13;;;23.61;59.17
77281;BME280;66339;47.262;17.144;2023-07-31T05:38:43;100188.03;;;23.62;59.25
77281;BME280;66339;47.262;17.144;2023-07-31T05:41:11;100193.41;;;23.62;59.55
77281;BME280;66339;47.262;17.144;2023-07-31T05:43:37;100195.03;;;23.63;59.59
77281;BME280;66339;47.262;17.144;2023-07-31T05:46:07;100193.94;;;23.64;59.71
77281;BME280;66339;47.262;17.144;2023-07-31T05:48:35;100192.03;;;23.64;59.88
77281;BME280;66339;47.262;17.144;2023-07-31T05:51:05;100193.34;;;23.67;59.56
77281;BME280;66339;47.262;17.144;2023-07-31T05:53:31;100196.31;;;23.65;59.87
77281;BME280;66339;47.262;17.144;2023-07-31T05:55:58;100197.97;;;23.66;59.62
77281;BME280;66339;47.262;17.144;2023-07-31T05:58:24;100201.44;;;23.67;59.64
77281;BME280;66339;47.262;17.144;2023-07-31T06:00:54;100202.56;;;23.66;59.58
77281;BME280;66339;47.262;17.144;2023-07-31T06:03:21;100199.87;;;23.66;59.51
77281;BME280;66339;47.262;17.144;2023-07-31T06:05:48;100197.16;;;23.66;59.49
77281;BME280;66339;47.262;17.144;2023-07-31T06:08:20;100200.66;;;23.66;58.91
77281;BME280;66339;47.262;17.144;2023-07-31T06:10:47;100198.22;;;23.65;58.77
77281;BME280;66339;47.262;17.144;2023-07-31T06:13:14;100200.91;;;23.65;57.37
77281;BME280;66339;47.262;17.144;2023-07-31T06:15:45;100192.94;;;23.60;57.28
77281;BME280;66339;47.262;17.144;2023-07-31T06:18:12;100196.84;;;23.53;57.76
77281;BME280;66339;47.262;17.144;2023-07-31T06:20:41;100192.09;;;23.50;58.03
77281;BME280;66339;47.262;17.144;2023-07-31T06:23:08;100193.69;;;23.51;58.06
77281;BME280;66339;47.262;17.144;2023-07-31T06:25:35;100183.34;;;23.53;58.64
77281;BME280;66339;47.262;17.144;2023-07-31T06:28:02;100185.78;;;23.55;58.23
77281;BME280;66339;47.262;17.144;2023-07-31T06:30:31;100187.03;;;23.58;58.67
77281;BME280;66339;47.262;17.144;2023-07-31T06:32:58;100187.53;;;23.60;58.86
77281;BME280;66339;47.262;17.144;2023-07-31T06:35:25;100183.13;;;23.64;57.94
77281;BME280;66339;47.262;17.144;2023-07-31T06:37:51;100181.53;;;23.63;58.02
77281;BME280;66339;47.262;17.144;2023-07-31T06:40:18;100183.66;;;23.66;58.31
77281;BME280;66339;47.262;17.144;2023-07-31T06:42:44;100186.37;;;23.66;56.52
77281;BME280;66339;47.262;17.144;2023-07-31T06:45:14;100193.03;;;23.68;56.63
77281;BME280;66339;47.262;17.144;2023-07-31T06:47:48;100183.03;;;23.69;57.20
77281;BME280;66339;47.262;17.144;2023-07-31T06:50:15;100191.62;;;23.71;57.18
77281;BME280;66339;47.262;17.144;2023-07-31T06:52:44;100186.22;;;23.71;57.17
77281;BME280;66339;47.262;17.144;2023-07-31T06:57:44;100189.41;;;23.73;56.49
77281;BME280;66339;47.262;17.144;2023-07-31T07:00:14;100189.41;;;23.73;56.78
77281;BME280;66339;47.262;17.144;2023-07-31T07:02:43;100196.44;;;23.74;56.97
77281;BME280;66339;47.262;17.144;2023-07-31T07:05:13;100191.81;;;23.74;57.26
77281;BME280;66339;47.262;17.144;2023-07-31T07:07:41;100193.72;;;23.74;56.88
77281;BME280;66339;47.262;17.144;2023-07-31T07:10:10;100185.63;;;23.74;57.07
77281;BME280;66339;47.262;17.144;2023-07-31T07:12:40;100178.59;;;23.73;56.88
77281;BME280;66339;47.262;17.144;2023-07-31T07:15:10;100185.63;;;23.74;55.88
77281;BME280;66339;47.262;17.144;2023-07-31T07:17:40;100177.53;;;23.74;56.55
77281;BME280;66339;47.262;17.144;2023-07-31T07:20:10;100184.78;;;23.73;56.49
77281;BME280;66339;47.262;17.144;2023-07-31T07:22:37;100179.41;;;23.73;55.32
77281;BME280;66339;47.262;17.144;2023-07-31T07:25:04;100180.22;;;23.74;55.55
77281;BME280;66339;47.262;17.144;2023-07-31T07:27:33;100175.28;;;23.76;56.23
77281;BME280;66339;47.262;17.144;2023-07-31T07:30:03;100181.81;;;23.75;56.05
77281;BME280;66339;47.262;17.144;2023-07-31T07:32:30;100181.81;;;23.75;55.69
77281;BME280;66339;47.262;17.144;2023-07-31T07:34:56;100176.41;;;23.75;56.05
77281;BME280;66339;47.262;17.144;2023-07-31T07:37:23;100174.81;;;23.74;55.61
77281;BME280;66339;47.262;17.144;2023-07-31T07:39:53;100176.69;;;23.73;55.98
77281;BME280;66339;47.262;17.144;2023-07-31T07:42:20;100172.41;;;23.72;55.07
77281;BME280;66339;47.262;17.144;2023-07-31T07:44:48;100166.22;;;23.72;54.86
77281;BME280;66339;47.262;17.144;2023-07-31T07:47:14;100168.12;;;23.71;55.25
77281;BME280;66339;47.262;17.144;2023-07-31T07:49:41;100166.72;;;23.74;54.08
77281;BME280;66339;47.262;17.144;2023-07-31T07:52:11;100167.50;;;23.74;53.71
77281;BME280;66339;47.262;17.144;2023-07-31T07:54:38;100175.09;;;23.72;53.38
77281;BME280;66339;47.262;17.144;2023-07-31T07:57:08;100163.84;;;23.70;53.31
77281;BME280;66339;47.262;17.144;2023-07-31T07:59:36;100170.62;;;23.68;53.03
77281;BME280;66339;47.262;17.144;2023-07-31T08:02:06;100156.66;;;23.66;52.89
77281;BME280;66339;47.262;17.144;2023-07-31T08:04:33;100165.56;;;23.66;53.00
77281;BME280;66339;47.262;17.144;2023-07-31T08:07:04;100160.41;;;23.65;53.02
77281;BME280;66339;47.262;17.144;2023-07-31T08:09:31;100162.63;;;23.63;53.46
77281;BME280;66339;47.262;17.144;2023-07-31T08:11:58;100162.63;;;23.63;54.09
77281;BME280;66339;47.262;17.144;2023-07-31T08:14:30;100166.41;;;23.62;54.08
77281;BME280;66339;47.262;17.144;2023-07-31T08:16:59;100164.84;;;23.61;53.68
77281;BME280;66339;47.262;17.144;2023-07-31T08:19:25;100164.84;;;23.61;52.67
77281;BME280;66339;47.262;17.144;2023-07-31T08:21:56;100177.53;;;23.60;52.20
77281;BME280;66339;47.262;17.144;2023-07-31T08:24:23;100175.63;;;23.61;52.74
77281;BME280;66339;47.262;17.144;2023-07-31T08:26:50;100175.63;;;23.61;53.11
77281;BME280;66339;47.262;17.144;2023-07-31T08:29:19;100170.22;;;23.61;53.62
77281;BME280;66339;47.262;17.144;2023-07-31T08:31:46;100177.22;;;23.62;53.77
77281;BME280;66339;47.262;17.144;2023-07-31T08:34:13;100182.81;;;23.65;53.92
77281;BME280;66339;47.262;17.144;2023-07-31T08:36:43;100181.44;;;23.68;53.86
77281;BME280;66339;47.262;17.144;2023-07-31T08:39:10;100171.12;;;23.70;55.00
77281;BME280;66339;47.262;17.144;2023-07-31T08:41:37;100181.31;;;23.73;55.22
77281;BME280;66339;47.262;17.144;2023-07-31T08:44:04;100180.50;;;23.72;54.69
77281;BME280;66339;47.262;17.144;2023-07-31T08:46:31;100187.34;;;23.70;52.20
77281;BME280;66339;47.262;17.144;2023-07-31T08:48:58;100184.62;;;23.70;54.20
77281;BME280;66339;47.262;17.144;2023-07-31T08:51:28;100189.72;;;23.71;54.09
77281;BME280;66339;47.262;17.144;2023-07-31T08:53:56;100184.62;;;23.70;53.89
77281;BME280;66339;47.262;17.144;2023-07-31T08:56:26;100193.22;;;23.72;54.06
77281;BME280;66339;47.262;17.144;2023-07-31T08:58:59;100182.41;;;23.72;54.05
77281;BME280;66339;47.262;17.144;2023-07-31T09:01:29;100182.41;;;23.72;53.42
77281;BME280;66339;47.262;17.144;2023-07-31T09:03:56;100175.63;;;23.74;53.88
77281;BME280;66339;47.262;17.144;2023-07-31T09:06:28;100181.81;;;23.75;54.30
77281;BME280;66339;47.262;17.144;2023-07-31T09:08:55;100175.28;;;23.76;54.10
77281;BME280;66339;47.262;17.144;2023-07-31T09:11:25;100178.78;;;23.76;53.85
77281;BME280;66339;47.262;17.144;2023-07-31T09:13:55;100178.00;;;23.76;53.52
77281;BME280;66339;47.262;17.144;2023-07-31T09:16:30;100188.31;;;23.74;53.32
77281;BME280;66339;47.262;17.144;2023-07-31T09:18:57;100174.00;;;23.73;53.26
77281;BME280;66339;47.262;17.144;2023-07-31T09:21:24;100174.81;;;23.74;53.53
77281;BME280;66339;47.262;17.144;2023-07-31T09:23:51;100171.00;;;23.75;53.45
77281;BME280;66339;47.262;17.144;2023-07-31T09:26:33;100162.41;;;23.73;53.33
77281;BME280;66339;47.262;17.144;2023-07-31T09:29:05;100173.19;;;23.73;54.12
77281;BME280;66339;47.262;17.144;2023-07-31T09:31:41;100171.63;;;23.72;53.93
77281;BME280;66339;47.262;17.144;2023-07-31T09:34:09;100170.22;;;23.74;54.04
77281;BME280;66339;47.262;17.144;2023-07-31T09:36:42;100173.72;;;23.75;53.94
77281;BME280;66339;47.262;17.144;2023-07-31T09:39:12;100171.00;;;23.75;53.81
77281;BME280;66339;47.262;17.144;2023-07-31T09:41:39;100165.59;;;23.75;52.99
77281;BME280;66339;47.262;17.144;2023-07-31T09:44:07;100174.81;;;23.74;53.93
77281;BME280;66339;47.262;17.144;2023-07-31T09:46:37;100164.03;;;23.74;53.25
77281;BME280;66339;47.262;17.144;2023-07-31T09:49:08;100164.03;;;23.74;53.17
77281;BME280;66339;47.262;17.144;2023-07-31T09:51:38;100167.69;;;23.78;53.50
77281;BME280;66339;47.262;17.144;2023-07-31T09:54:11;100162.78;;;23.80;53.35
77281;BME280;66339;47.262;17.144;2023-07-31T09:56:41;100161.19;;;23.79;53.48
77281;BME280;66339;47.262;17.144;2023-07-31T09:59:08;100159.59;;;23.78;53.80
77281;BME280;66339;47.262;17.144;2023-07-31T10:01:40;100151.16;;;23.80;53.61
77281;BME280;66339;47.262;17.144;2023-07-31T10:04:08;100154.38;;;23.82;53.98
77281;BME280;66339;47.262;17.144;2023-07-31T10:06:40;100154.38;;;23.82;53.95
77281;BME280;66339;47.262;17.144;2023-07-31T10:09:09;100156.75;;;23.83;53.82
77281;BME280;66339;47.262;17.144;2023-07-31T10:11:43;100148.66;;;23.83;54.54
77281;BME280;66339;47.262;17.144;2023-07-31T10:14:15;100146.28;;;23.82;54.03
77281;BME280;66339;47.262;17.144;2023-07-31T10:16:46;100139.75;;;23.83;54.06
77281;BME280;66339;47.262;17.144;2023-07-31T10:19:13;100145.94;;;23.83;53.92
77281;BME280;66339;47.262;17.144;2023-07-31T10:21:46;100142.47;;;23.83;53.43
77281;BME280;66339;47.262;17.144;2023-07-31T10:24:16;100141.16;;;23.80;53.66
77281;BME280;66339;47.262;17.144;2023-07-31T10:26:45;100140.56;;;23.83;53.87
77281;BME280;66339;47.262;17.144;2023-07-31T10:29:13;100143.25;;;23.83;53.20
77281;BME280;66339;47.262;17.144;2023-07-31T10:31:45;100133.56;;;23.82;53.21
77281;BME280;66339;47.262;17.144;2023-07-31T10:34:13;100128.16;;;23.82;53.16
77281;BME280;66339;47.262;17.144;2023-07-31T10:36:43;100131.66;;;23.83;53.08
77281;BME280;66339;47.262;17.144;2023-07-31T10:39:32;100133.56;;;23.82;53.33
77281;BME280;66339;47.262;17.144;2023-07-31T10:41:57;100128.16;;;23.82;53.77
77281;BME280;66339;47.262;17.144;2023-07-31T10:44:26;100125.47;;;23.82;54.43
77281;BME280;66339;47.262;17.144;2023-07-31T10:46:54;100125.94;;;23.84;53.71
77281;BME280;66339;47.262;17.144;2023-07-31T10:49:21;100118.63;;;23.85;53.25
77281;BME280;66339;47.262;17.144;2023-07-31T10:51:47;100118.00;;;23.88;53.19
77281;BME280;66339;47.262;17.144;2023-07-31T10:54:15;100110.69;;;23.88;53.58
77281;BME280;66339;47.262;17.144;2023-07-31T10:56:45;100112.28;;;23.89;53.84
77281;BME280;66339;47.262;17.144;2023-07-31T10:59:18;100105.81;;;23.90;53.79
77281;BME280;66339;47.262;17.144;2023-07-31T11:04:22;100095.47;;;23.92;53.48
77281;BME280;66339;47.262;17.144;2023-07-31T11:06:58;100099.78;;;23.93;53.38
77281;BME280;66339;47.262;17.144;2023-07-31T11:09:31;100098.34;;;23.96;53.42
77281;BME280;66339;47.262;17.144;2023-07-31T11:11:59;100098.06;;;23.97;53.19
77281;BME280;66339;47.262;17.144;2023-07-31T11:17:16;100080.22;;;23.96;53.49
77281;BME280;66339;47.262;17.144;2023-07-31T11:19:54;100078.81;;;23.99;53.41
77281;BME280;66339;47.262;17.144;2023-07-31T11:22:30;100082.62;;;23.98;53.37
77281;BME280;66339;47.262;17.144;2023-07-31T11:25:05;100081.19;;;24.00;53.51
77281;BME280;66339;47.262;17.144;2023-07-31T11:27:41;100083.91;;;24.00;53.64
77281;BME280;66339;47.262;17.144;2023-07-31T11:30:08;100096.62;;;24.00;53.94
77281;BME280;66339;47.262;17.144;2023-07-31T11:32:38;100082.31;;;23.99;53.88
77281;BME280;66339;47.262;17.144;2023-07-31T11:35:05;100083.44;;;23.98;54.17
77281;BME280;66339;47.262;17.144;2023-07-31T11:37:41;100083.44;;;23.98;54.24
77281;BME280;66339;47.262;17.144;2023-07-31T11:40:09;100088.03;;;23.98;54.40
77281;BME280;66339;47.262;17.144;2023-07-31T11:42:36;100078.03;;;23.98;54.53
77281;BME280;66339;47.262;17.144;2023-07-31T11:45:06;100072.62;;;23.98;54.44
77281;BME280;66339;47.262;17.144;2023-07-31T11:47:34;100072.62;;;23.98;54.38
77281;BME280;66339;47.262;17.144;2023-07-31T11:50:02;100067.22;;;23.98;54.18
77281;BME280;66339;47.262;17.144;2023-07-31T11:52:29;100067.22;;;23.98;54.19
77281;BME280;66339;47.262;17.144;2023-07-31T11:54:57;100062.59;;;23.99;54.15
77281;BME280;66339;47.262;17.144;2023-07-31T11:57:27;100052.59;;;23.99;54.18
77281;BME280;66339;47.262;17.144;2023-07-31T11:59:54;100058.78;;;24.00;54.22
77281;BME280;66339;47.262;17.144;2023-07-31T12:02:25;100057.69;;;24.01;54.23
77281;BME280;66339;47.262;17.144;2023-07-31T12:04:52;100050.41;;;24.02;54.16
77281;BME280;66339;47.262;17.144;2023-07-31T12:07:18;100041.47;;;24.01;54.18
77281;BME280;66339;47.262;17.144;2023-07-31T12:09:56;100044.16;;;24.01;54.35
77281;BME280;66339;47.262;17.144;2023-07-31T12:12:24;100042.59;;;24.00;54.37
77281;BME280;66339;47.262;17.144;2023-07-31T12:14:58;100034.00;;;23.98;53.95
77281;BME280;66339;47.262;17.144;2023-07-31T12:17:34;100037.19;;;24.00;53.73
77281;BME280;66339;47.262;17.144;2023-07-31T12:20:03;100036.38;;;23.99;53.60
77281;BME280;66339;47.262;17.144;2023-07-31T12:22:30;100031.78;;;24.00;53.66
77281;BME280;66339;47.262;17.144;2023-07-31T12:25:00;100026.06;;;24.02;53.88
77281;BME280;66339;47.262;17.144;2023-07-31T12:27:32;100018.75;;;24.02;54.09
77281;BME280;66339;47.262;17.144;2023-07-31T12:29:59;100026.53;;;24.04;54.32
77281;BME280;66339;47.262;17.144;2023-07-31T12:32:26;100019.56;;;24.03;54.22
77281;BME280;66339;47.262;17.144;2023-07-31T12:34:59;100014.16;;;24.03;54.19
77281;BME280;66339;47.262;17.144;2023-07-31T12:37:29;100010.34;;;24.04;54.17
77281;BME280;66339;47.262;17.144;2023-07-31T12:39:56;100003.34;;;24.03;54.00
77281;BME280;66339;47.262;17.144;2023-07-31T12:42:26;100010.34;;;24.04;54.04
77281;BME280;66339;47.262;17.144;2023-07-31T12:44:58;100001.12;;;24.05;54.09
77281;BME280;66339;47.262;17.144;2023-07-31T12:47:28;100000.81;;;24.06;54.24
77281;BME280;66339;47.262;17.144;2023-07-31T12:50:01;99996.66;;;24.09;54.58
77281;BME280;66339;47.262;17.144;2023-07-31T12:52:30;99996.66;;;24.09;54.62
77281;BME280;66339;47.262;17.144;2023-07-31T12:54:57;99990.81;;;24.07;54.72
77281;BME280;66339;47.262;17.144;2023-07-31T12:57:24;99992.87;;;24.10;54.83
77281;BME280;66339;47.262;17.144;2023-07-31T12:59:50;99975.06;;;24.09;54.90
77281;BME280;66339;47.262;17.144;2023-07-31T13:02:20;99971.28;;;24.10;55.06
77281;BME280;66339;47.262;17.144;2023-07-31T13:04:50;99971.28;;;24.10;54.92